LGSKLGTS

Guest
Details From LGSK - Skiathos Alexandros Papadiamantis
To LGTS - Thessalonik Makedonia
Flight Number -
Tags generated
Created
Modified
Stats Distance 84 nm / 156 km
Max Altitude 800 ft / 244 m
Waypoints 3
Social Downloads 0
Likes 0
Share VATSIM

Download

Looking for another format? Having issues loading an existing format? Contact us
Advertisement - Login to hide

Notes

Basic altitude profile: - Ascent Rate: 2500ft/min - Ascent Speed: 250kts - Cruise Altitude: 35000ft - Cruise Speed: 420kts - Descent Rate: 1500ft/min - Descent Speed: 250kts

Route

LGSK TSL LGTS

ID Type Via Altitude Latitude Longitude Leg Dist Tot Dist Heading (true) Name
O LGSK APT - 0 ft / 0 m 39.17710˚ 23.50368˚ - 0 nm - Skiathos Alexandros Papadiamantis
TSL VOR - 800 ft / 244 m 40.45694˚ 22.99111˚ 80 nm 80 nm 343° / 343° THESSALONIKI VOR-DME
O LGTS APT - 0 ft / 0 m 40.51952˚ 22.97202˚ 3 nm 84 nm 347° / 347° Thessalonik Makedonia

Altitude Profile

Advertisement - Login to hide

LGSK

Details ICAO LGSK (JSI)
Name Skiathos Alexandros Papadiamantis
Region Greece
Timezone Europe/Athens (UTC+2.0)
Stats Elevation 54 ft / 16 m (AMSL)
Location 39.177100° 23.503677°
Runways 1
Magnetic Variation 4.554° E

METAR

LGSK 171150Z 34006KT 9999 SCT025 15/11 Q1006

Decode

TAF

Not found

Departure Runways

ID Width Length Bearing (true) Bearing (mag) Surface Threshold Offset Overrun Length
02 98 ft / 30 m 5,535 ft / 1,687 m 18.96° 14.41° Asphalt 190 ft / 58 m 0 ft / 0 m
20 98 ft / 30 m 5,535 ft / 1,687 m 198.97° 194.42° Asphalt 0 ft / 0 m 242 ft / 74 m

LGTS

Details ICAO LGTS (SKG)
Name Thessalonik Makedonia
Region Greece
Timezone Europe/Athens (UTC+2.0)
Stats Elevation 22 ft / 7 m (AMSL)
Location 40.519522° 22.972017°
Runways 2
Magnetic Variation 4.623° E

METAR

LGTS 171220Z 33009KT 9999 FEW010 SCT020 BKN030 12/05 Q1007 NOSIG

Decode

TAF

TAF LGTS 171100Z 1712/1812 34015KT 9999 SCT030 TEMPO 1712/1812 34015G25KT

Decode

Destination Runways

ID Width Length Bearing (true) Bearing (mag) Surface Threshold Offset Overrun Length
10 164 ft / 50 m 7,990 ft / 2,435 m 103.95° 99.33° Asphalt 0 ft / 0 m 150 ft / 46 m
16 197 ft / 60 m 7,927 ft / 2,416 m 166.35° 161.73° Asphalt 0 ft / 0 m 200 ft / 61 m
28 164 ft / 50 m 7,990 ft / 2,435 m 283.97° 279.35° Asphalt 0 ft / 0 m 150 ft / 46 m
34 197 ft / 60 m 7,927 ft / 2,416 m 346.36° 341.74° Asphalt 0 ft / 0 m 200 ft / 61 m

Approach Navaids

Runway Type Ident Frequency Range Bearing (true) Bearing (mag) Slope Elevation
10 Localiser IMAK 109.50 MHz 18 nm / 33 km 103.99° 99.36° - 19 ft / 6 m (AMSL)
10 Glidescope IMAK 109.50 MHz 10 nm / 19 km 103.96° 99.34° 3.00° 8 ft / 2 m (AMSL)
10 DME IMAK 109.50 MHz 18 nm / 33 km - - - 8 ft / 2 m (AMSL)
16 Localiser ITSL 110.30 MHz 18 nm / 33 km 166.62° 162.00° - 16 ft / 5 m (AMSL)
16 Glidescope ITSL 110.30 MHz 10 nm / 19 km 166.35° 161.73° 3.00° 16 ft / 5 m (AMSL)
16 DME ITSL 110.30 MHz 18 nm / 33 km - - - 16 ft / 5 m (AMSL)

Popular Alternatives